METAR Data
IDs: Format: Raw Decoded Include TAF

Data at: 1347 UTC 12 Dec 2018

PAVL 111553Z AUTO 03012KT 8SM SCT085 M18/M22 A2903 RMK AO2 SLP832 T11781217 TSNO
PAVL 111453Z AUTO 04011KT 8SM FEW085 M17/M22 A2903 RMK AO2 SLP830 T11721217 58004 TSNO $
PAVL 111353Z AUTO 04011KT 9SM SCT075 M17/M21 A2903 RMK AO2 SLP832 T11671211 TSNO $
PAVL 111253Z AUTO 03010KT 8SM OVC080 M17/M21 A2904 RMK AO2 SLP835 T11671211 TSNO $
PAVL 111153Z AUTO 02016KT 8SM SCT065 OVC090 M17/M21 A2904 RMK AO2 SLP833 7//// T11671206 11156 21172 58005 TSNO $
PAVL 110953Z AUTO 04010KT 9SM FEW060 M16/M21 A2905 RMK AO2 SLP839 T11611206 TSNO $
PAVL 110853Z AUTO 03012KT 9SM OVC060 M16/M20 A2905 RMK AO2 SLP838 T11611200 411281194 56007 TSNO $
PAVL 110753Z AUTO 03013KT 9SM SCT065 M16/M21 A2905 RMK AO2 SLP839 T11611206 TSNO $
PAVL 110553Z AUTO 05007KT 9SM FEW110 M16/M19 A2907 RMK AO2 SLP845 T11561194 11128 21156 55006 TSNO $
PAVL 110453Z AUTO 35003KT 9SM BKN075 OVC090 M16/M19 A2907 RMK AO2 SLP844 T11561194 TSNO $
PAVL 110353Z AUTO 04007KT 9SM CLR M15/M19 A2908 RMK AO2 SLP847 T11501189 TSNO $
PAVL 110253Z AUTO 06013KT 9SM SCT110 M13/M18 A2909 RMK AO2 SLP851 T11331178 56009 TSNO $
PAVL 110153Z AUTO 06011KT 9SM SCT055 M13/M17 A2910 RMK AO2 SLP854 T11331172 TSNO $